Condiciones actuales en los principales Aeropuertos de España-Datos Metar

 

LEAL - Alicante
Actualización: 25/02/2017 12:00
Mostly Cloudy
Mostly Cloudy
 Viento del E
Viento: E 11 km/h
Temperatura: 14°C
Rocío: 11°C
Humedad: 82%
Barómetro: 1020 hPa
Nubosidad: Mostly Cloudy
Visibilidad: 10 km
Cloud details: Few Clouds 305 m
Mostly Cloudy 610 m
2017/02/25 11:00 LEAL 251100Z 08006KT 060V140 9999 FEW010 BKN020 14/11 Q1020 NOSIG
LEAB - Albacete
Actualización: 25/02/2017 12:00
Despejado
Despejado
 Viento del NO
Viento: NO 13 km/h
Temperatura: 8°C
Wind Chill: 6°C
Rocío: 2°C
Humedad: 66%
Barómetro: 1021 hPa
Resumen: Despejado
Visibilidad: greater than 10 km
2017/02/25 11:00 LEAB 251100Z 32007KT 300V010 CAVOK 08/02 Q1021 NOSIG
LEAM - Almería
Actualización: 25/02/2017 12:00
Few Clouds
Few Clouds
 Viento del ESE
Viento: ESE 13 km/h
Temperatura: 18°C
Rocío: 11°C
Humedad: 64%
Barómetro: 1020 hPa
Nubosidad: Few Clouds
Visibilidad: 10 km
Cloud details: Few Clouds 610 m
2017/02/25 11:00 LEAM 251100Z 11007KT 070V160 9999 FEW020 18/11 Q1020
 
LEAS - Asturias/Aviles
Actualización: 25/02/2017 12:00
Despejado
Despejado
 Viento del calm
Viento: Calma
Temperatura: 14°C
Rocío: 6°C
Humedad: 59%
Barómetro: 1019 hPa
Resumen: Despejado
Visibilidad: greater than 10 km
2017/02/25 11:00 LEAS 251100Z 00000KT CAVOK 14/06 Q1019 NOSIG
LEBZ - Badajoz/Talavera la Real
Actualización: 25/02/2017 12:00
Mist, Muy nuboso
Mist, Muy nuboso
 Viento del calm
Viento: Calma
Temperatura: 9°C
Rocío: 9°C
Humedad: 100%
Barómetro: 1022 hPa
Resumen: Mist
Nubosidad: Mostly Cloudy
Visibilidad: 3 km
Cloud details: Mostly Cloudy 61 m
2017/02/25 11:00 LEBZ 251100Z 00000KT 2500 BR BKN002 09/09 Q1022
LEBL - Barcelona
Actualización: 25/02/2017 12:00
Few Clouds
Few Clouds
 Viento del NE
Viento: NE 7 km/h
Temperatura: 12°C
Rocío: 4°C
Humedad: 58%
Barómetro: 1021 hPa
Nubosidad: Few Clouds
Visibilidad: 10 km
Cloud details: Few Clouds 914 m
2017/02/25 11:00 LEBL 251100Z 04004KT 340V120 9999 FEW030 12/04 Q1021 NOSIG
 
LEBB - Bilbao
Actualización: 25/02/2017 12:00
Despejado
Despejado
 Viento del ESE
Viento: ESE 15 km/h
Temperatura: 13°C
Rocío: 5°C
Humedad: 59%
Barómetro: 1020 hPa
Resumen: Despejado
Visibilidad: greater than 10 km
2017/02/25 11:00 LEBB 251100Z 12008KT 090V150 CAVOK 13/05 Q1020 NOSIG
LEBG - Burgos/Villafría
Actualización: 25/02/2017 12:00
Despejado
Despejado
 Viento del OSO
Viento: OSO 7 km/h
Temperatura: 9°C
Wind Chill: 8°C
Rocío: -1°C
Humedad: 50%
Barómetro: 1021 hPa
Resumen: Despejado
Visibilidad: greater than 10 km
2017/02/25 11:00 LEBG 251100Z 25004KT 200V300 CAVOK 09/M01 Q1021
LEBA - Córdoba
Actualización: 25/02/2017 12:00
Mist, Cubierto
Mist, Cubierto
 Viento del SO
Viento: SO 6 km/h
Temperatura: 13°C
Rocío: 13°C
Humedad: 100%
Barómetro: 1022 hPa
Resumen: Mist
Nubosidad: Cubierto
Visibilidad: 3 km
Cloud details: Partly Cloudy 122 m
Cubierto 305 m
2017/02/25 11:00 LEBA 251100Z 23003KT 190V260 3000 BR SCT004 OVC010 13/13 Q1022
 
LEGE - Gerona
Actualización: 25/02/2017 12:00
Despejado
Despejado
 Viento del E
Viento: E 2 km/h
Temperatura: 12°C
Rocío: 3°C
Humedad: 54%
Barómetro: 1020 hPa
Resumen: Despejado
Visibilidad: greater than 10 km
2017/02/25 11:00 LEGE 251100Z 09001KT CAVOK 12/03 Q1020
LEGR - Granada
Actualización: 25/02/2017 12:00
Partly Cloudy
Partly Cloudy
 Viento del SO
Viento: SO 6 km/h
Temperatura: 12°C
Rocío: 11°C
Humedad: 94%
Barómetro: 1021 hPa
Nubosidad: Partly Cloudy
Visibilidad: 7 km
Cloud details: Partly Cloudy 183 m
2017/02/25 11:00 LEGR 251100Z 23003KT 190V290 7000 SCT006 12/11 Q1021
GCHI - Hierro
Actualización: 25/02/2017 12:00
Few Clouds
Few Clouds
 Viento del NNE
Viento: NNE 30 km/h
Temperatura: 19°C
Rocío: 11°C
Humedad: 60%
Barómetro: 1024 hPa
Nubosidad: Few Clouds
Visibilidad: 10 km
Cloud details: Few Clouds 914 m
2017/02/25 11:00 GCHI 251100Z 03016KT 9999 FEW030 19/11 Q1024
 
LEIB - Ibiza
Actualización: 25/02/2017 12:00
Lluvia débil, Cubierto
Lluvia débil, Cubierto
 Viento del SO
Viento: SO 9 km/h
Temperatura: 13°C
Rocío: 12°C
Humedad: 94%
Barómetro: 1021 hPa
Resumen: Light Rain
Nubosidad: Cubierto
Visibilidad: 8 km
Cloud details: Partly Cloudy 152 m
Mostly Cloudy 274 m
Cubierto 914 m
2017/02/25 11:00 LEIB 251100Z 22005KT 190V250 8000 -RA SCT005 BKN009 OVC030 13/12 Q1021 RERA NOSIG
LEJR - Jerez de la Frontera
Actualización: 25/02/2017 12:00
Cubierto
Cubierto
 Viento del varies
Viento: varies 4 km/h
Temperatura: 16°C
Rocío: 13°C
Humedad: 83%
Barómetro: 1022 hPa
Nubosidad: Cubierto
Visibilidad: 7 km
Cloud details: Few Clouds 457 m
Mostly Cloudy 518 m
Cubierto 914 m
2017/02/25 11:00 LEJR 251100Z VRB02KT 7000 FEW015 BKN017 OVC030 16/13 Q1022
LECO - A Coruña
Actualización: 25/02/2017 12:00
Despejado
Despejado
 Viento del varies
Viento: varies 6 km/h
Temperatura: 14°C
Rocío: 8°C
Humedad: 67%
Barómetro: 1020 hPa
Resumen: Despejado
Visibilidad: greater than 10 km
2017/02/25 11:00 LECO 251100Z VRB03KT CAVOK 14/08 Q1020 NOSIG
 
GCLA - La Palma
Actualización: 25/02/2017 12:00
Mostly Cloudy
Mostly Cloudy
 Viento del NNE
Viento: NNE 15 km/h
Temperatura: 20°C
Rocío: 9°C
Humedad: 49%
Barómetro: 1025 hPa
Nubosidad: Mostly Cloudy
Visibilidad: 10 km
Cloud details: Mostly Cloudy 1219 m
2017/02/25 11:00 GCLA 251100Z 02008KT 340V070 9999 BKN040 20/09 Q1025
GCRR - Lanzarote
Actualización: 25/02/2017 12:00
Mostly Cloudy
Mostly Cloudy
 Viento del NNE
Viento: NNE 24 km/h
Temperatura: 20°C
Rocío: 11°C
Humedad: 56%
Barómetro: 1023 hPa
Nubosidad: Mostly Cloudy
Visibilidad: 10 km
Cloud details: Mostly Cloudy 1372 m
2017/02/25 11:00 GCRR 251100Z 03013KT 350V050 9999 BKN045 20/11 Q1023
GCLP - Las Palmas
Actualización: 25/02/2017 12:00
Mostly Cloudy
Mostly Cloudy
 Viento del N
Viento: N 26 km/h
Temperatura: 20°C
Rocío: 8°C
Humedad: 46%
Barómetro: 1023 hPa
Nubosidad: Mostly Cloudy
Visibilidad: 10 km
Cloud details: Few Clouds 1067 m
Mostly Cloudy 1524 m
2017/02/25 11:00 GCLP 251100Z 01014KT 9999 FEW035 BKN050 20/08 Q1023 NOSIG
 
LELN - León
Actualización: 25/02/2017 12:00
Despejado
Despejado
 Viento del SSO
Viento: SSO 11 km/h
Temperatura: 9°C
Wind Chill: 7°C
Rocío: 2°C
Humedad: 62%
Barómetro: 1021 hPa
Resumen: Despejado
Visibilidad: greater than 10 km
2017/02/25 11:00 LELN 251100Z 21006KT 170V240 CAVOK 09/02 Q1021
LELO - Logroño
Actualización: 25/02/2017 12:00
Despejado
Despejado
 Viento del O
Viento: O 24 km/h
Temperatura: 11°C
Rocío: 2°C
Humedad: 54%
Barómetro: 1020 hPa
Resumen: Despejado
Visibilidad: greater than 10 km
2017/02/25 11:00 LELO 251100Z 27013KT 240V300 CAVOK 11/02 Q1020
LECV - Madrid/Colmenar
Actualización: 25/02/2017 12:00
Despejado
Despejado
 Viento del S
Viento: S 6 km/h
Temperatura: 12°C
Rocío: 2°C
Humedad: 51%
Barómetro: 1020 hPa
Resumen: Despejado
Visibilidad: greater than 10 km
2017/02/25 11:00 LECV 251100Z 17003KT 110V210 CAVOK 12/02 Q1020
 
LEMD - Madrid/Barajas
Actualización: 25/02/2017 12:00
Despejado
Despejado
 Viento del SE
Viento: SE 6 km/h
Temperatura: 10°C
Rocío: 0°C
Humedad: 50%
Barómetro: 1020 hPa
Resumen: Despejado
Visibilidad: greater than 10 km
2017/02/25 11:00 LEMD 251100Z 14003KT 080V210 CAVOK 10/00 Q1020 NOSIG
LEVS - Madrid/Cuatro Vientos
Actualización: 25/02/2017 12:00
Despejado
Despejado
 Viento del varies
Viento: varies 4 km/h
Temperatura: 13°C
Rocío: 1°C
Humedad: 44%
Barómetro: 1020 hPa
Resumen: Despejado
Visibilidad: greater than 10 km
2017/02/25 11:00 LEVS 251100Z VRB02KT CAVOK 13/01 Q1020
LEGT - Madrid/Getafe
Actualización: 25/02/2017 12:00
Despejado
Despejado
 Viento del S
Viento: S 4 km/h
Temperatura: 12°C
Rocío: 2°C
Humedad: 51%
Barómetro: 1020 hPa
Resumen: Despejado
Visibilidad: greater than 10 km
2017/02/25 11:00 LEGT 251100Z 19002KT CAVOK 12/02 Q1020
 
LETO - Madrid/Torrejón
Actualización: 25/02/2017 12:00
Despejado
Despejado
 Viento del SSO
Viento: SSO 6 km/h
Temperatura: 10°C
Rocío: 1°C
Humedad: 54%
Barómetro: 1021 hPa
Resumen: Despejado
Visibilidad: greater than 10 km
2017/02/25 11:00 LETO 251100Z 20003KT 160V260 CAVOK 10/01 Q1021 NOSIG
LEMG - Málaga
Actualización: 25/02/2017 12:00
Few Clouds
Few Clouds
 Viento del O
Viento: O 22 km/h
Temperatura: 18°C
Rocío: 12°C
Humedad: 68%
Barómetro: 1020 hPa
Nubosidad: Few Clouds
Visibilidad: 8 km
Cloud details: Few Clouds 1524 m
2017/02/25 11:00 LEMG 251100Z 27012KT 240V300 8000 FEW050 18/12 Q1020 NOSIG
GEML - Melilla
Actualización: 25/02/2017 12:00
Partly Cloudy
Partly Cloudy
 Viento del O
Viento: O 19 km/h, Racha: 39 km/h
Temperatura: 17°C
Rocío: 13°C
Humedad: 77%
Barómetro: 1021 hPa
Nubosidad: Partly Cloudy
Visibilidad: 10 km
Cloud details: Few Clouds 396 m
Partly Cloudy 1311 m
2017/02/25 11:00 GEML 251100Z 28010G21KT 230V330 9999 FEW013 SCT043 17/13 Q1021
 
LEMH - Mahón
Actualización: 25/02/2017 12:00
Few Clouds
Few Clouds
 Viento del N
Viento: N 35 km/h, Racha: 54 km/h
Temperatura: 12°C
Rocío: 4°C
Humedad: 58%
Barómetro: 1019 hPa
Nubosidad: Few Clouds
Visibilidad: 10 km
Cloud details: Few Clouds 914 m
2017/02/25 11:00 LEMH 251100Z 36019G29KT 9999 FEW030 12/04 Q1019
LEMO - Morón de La Frontera
Actualización: 25/02/2017 12:00
Cubierto
Cubierto
 Viento del SO
Viento: SO 11 km/h
Temperatura: 15°C
Rocío: 12°C
Humedad: 82%
Barómetro: 1022 hPa
Nubosidad: Cubierto
Visibilidad: 7 km
Cloud details: Mostly Cloudy 610 m
Cubierto 853 m
2017/02/25 11:00 LEMO 251100Z 23006KT 200V260 7000 BKN020 OVC028 15/12 Q1022 NOSIG
LERI - Murcia/Alcantarilla
Actualización: 25/02/2017 12:00
Few Clouds
Few Clouds
 Viento del NNE
Viento: NNE 2 km/h
Temperatura: 15°C
Rocío: 7°C
Humedad: 59%
Barómetro: 1020 hPa
Nubosidad: Few Clouds
Visibilidad: 10 km
Cloud details: Few Clouds 762 m
2017/02/25 11:00 LERI 251100Z 02001KT 9999 FEW025 15/07 Q1020 NOSIG
 
LELC - Murcia/San Javier
Actualización: 25/02/2017 12:00
Mostly Cloudy
Mostly Cloudy
 Viento del E
Viento: E 6 km/h
Temperatura: 16°C
Rocío: 14°C
Humedad: 88%
Barómetro: 1020 hPa
Nubosidad: Mostly Cloudy
Visibilidad: 10 km
Cloud details: Few Clouds 610 m
Mostly Cloudy 823 m
2017/02/25 11:00 LELC 251100Z 08003KT 360V170 9999 FEW020 BKN027 16/14 Q1020 NOSIG
LEPA - Palma de Mallorca
Actualización: 25/02/2017 12:00
Mostly Cloudy
Mostly Cloudy
 Viento del varies
Viento: varies 4 km/h
Temperatura: 13°C
Rocío: 9°C
Humedad: 77%
Barómetro: 1020 hPa
Nubosidad: Mostly Cloudy
Visibilidad: 10 km
Cloud details: Few Clouds 549 m
Mostly Cloudy 914 m
2017/02/25 11:00 LEPA 251100Z VRB02KT 9999 FEW018 BKN030 13/09 Q1020 NOSIG
LEPP - Pamplona
Actualización: 25/02/2017 12:00
Despejado
Despejado
 Viento del calm
Viento: Calma
Temperatura: 12°C
Rocío: 1°C
Humedad: 47%
Barómetro: 1019 hPa
Resumen: Despejado
Visibilidad: greater than 10 km
2017/02/25 11:00 LEPP 251100Z 00000KT CAVOK 12/01 Q1019
 
LERS - Reus
Actualización: 25/02/2017 12:00
Despejado
Despejado
 Viento del E
Viento: E 6 km/h
Temperatura: 13°C
Rocío: 3°C
Humedad: 51%
Barómetro: 1020 hPa
Resumen: Despejado
Visibilidad: greater than 10 km
2017/02/25 11:00 LERS 251100Z 10003KT 050V170 CAVOK 13/03 Q1020
LERT - Rota
Actualización: 25/02/2017 12:00
Mostly Cloudy
Mostly Cloudy
 Viento del SO
Viento: SO 13 km/h
Temperatura: 16°C
Rocío: 11°C
Humedad: 72%
Barómetro: 1022 hPa
Nubosidad: Mostly Cloudy
Visibilidad: 9 km
Cloud details: Mostly Cloudy 1036 m
2017/02/25 11:00 LERT 251100Z 23007KT 9000 BKN034 16/11 Q1022 NOSIG
LELL - Sabadell
Actualización: 25/02/2017 12:00
Few Clouds
Few Clouds
 Viento del calm
Viento: Calma
Temperatura: 12°C
Rocío: 4°C
Humedad: 58%
Barómetro: 1020 hPa
Nubosidad: Few Clouds
Visibilidad: 10 km
Cloud details: Few Clouds 762 m
2017/02/25 11:00 LELL 251100Z 00000KT 9999 FEW025 12/04 Q1020
 
LESA - Salamanca
Actualización: 25/02/2017 12:00
Despejado
Despejado
 Viento del calm
Viento: Calma
Temperatura: 9°C
Rocío: 2°C
Humedad: 62%
Barómetro: 1022 hPa
Resumen: Despejado
Visibilidad: greater than 10 km
2017/02/25 11:00 LESA 251100Z 00000KT CAVOK 09/02 Q1022
LESO - San Sebastián
Actualización: 25/02/2017 12:00
Despejado
Despejado
 Viento del varies
Viento: varies 2 km/h
Temperatura: 12°C
Rocío: 5°C
Humedad: 63%
Barómetro: 1021 hPa
Resumen: Despejado
Visibilidad: greater than 10 km
2017/02/25 11:00 LESO 251100Z VRB01KT CAVOK 12/05 Q1021
LEXJ - Santander
Actualización: 25/02/2017 12:00
Despejado
Despejado
 Viento del O
Viento: O 2 km/h
Temperatura: 13°C
Rocío: 4°C
Humedad: 55%
Barómetro: 1020 hPa
Resumen: Despejado
Visibilidad: greater than 10 km
2017/02/25 11:00 LEXJ 251100Z 27001KT CAVOK 13/04 Q1020
 
LEPA - Palma de Mallorca
Actualización: 25/02/2017 12:00
Mostly Cloudy
Mostly Cloudy
 Viento del varies
Viento: varies 4 km/h
Temperatura: 13°C
Rocío: 9°C
Humedad: 77%
Barómetro: 1020 hPa
Nubosidad: Mostly Cloudy
Visibilidad: 10 km
Cloud details: Few Clouds 549 m
Mostly Cloudy 914 m
2017/02/25 11:00 LEPA 251100Z VRB02KT 9999 FEW018 BKN030 13/09 Q1020 NOSIG
LEPP - Pamplona
Actualización: 25/02/2017 12:00
Despejado
Despejado
 Viento del calm
Viento: Calma
Temperatura: 12°C
Rocío: 1°C
Humedad: 47%
Barómetro: 1019 hPa
Resumen: Despejado
Visibilidad: greater than 10 km
2017/02/25 11:00 LEPP 251100Z 00000KT CAVOK 12/01 Q1019
LEST - Santiago de Compostela
Actualización: 25/02/2017 12:00
Despejado
Despejado
 Viento del varies
Viento: varies 9 km/h
Temperatura: 12°C
Rocío: 8°C
Humedad: 77%
Barómetro: 1021 hPa
Resumen: Despejado
Visibilidad: greater than 10 km
2017/02/25 11:00 LEST 251100Z VRB05KT CAVOK 12/08 Q1021 NOSIG
 
LEZL - Sevilla
Actualización: 25/02/2017 12:00
Cubierto
Cubierto
 Viento del calm
Viento: Calma
Temperatura: 16°C
Rocío: 13°C
Humedad: 83%
Barómetro: 1022 hPa
Nubosidad: Cubierto
Visibilidad: 8 km
Cloud details: Cubierto 853 m
2017/02/25 11:00 LEZL 251100Z 00000KT 8000 OVC028 16/13 Q1022 NOSIG
GCXO - Tenerife
Actualización: 25/02/2017 12:00
Partly Cloudy
Partly Cloudy
 Viento del NO
Viento: NO 17 km/h
Temperatura: 14°C
Rocío: 9°C
Humedad: 72%
Barómetro: 1025 hPa
Nubosidad: Partly Cloudy
Visibilidad: 10 km
Cloud details: Partly Cloudy 549 m
2017/02/25 11:00 GCXO 251100Z 32009KT 280V010 9999 SCT018 14/09 Q1025 NOSIG
GCTS - Tenerife-Sur
Actualización: 25/02/2017 12:00
Few Clouds
Few Clouds
 Viento del ENE
Viento: ENE 26 km/h
Temperatura: 20°C
Rocío: 9°C
Humedad: 49%
Barómetro: 1023 hPa
Nubosidad: Few Clouds
Visibilidad: 10 km
Cloud details: Few Clouds 1067 m
2017/02/25 11:00 GCTS 251100Z 07014KT 020V120 9999 FEW035 20/09 Q1023 NOSIG
 
LEVC - Valencia
Actualización: 25/02/2017 12:00
Despejado
Despejado
 Viento del varies
Viento: varies 4 km/h
Temperatura: 15°C
Rocío: 5°C
Humedad: 51%
Barómetro: 1020 hPa
Resumen: Despejado
Visibilidad: greater than 10 km
2017/02/25 11:00 LEVC 251100Z VRB02KT CAVOK 15/05 Q1020 NOSIG
LEVD - Valladolid
Actualización: 25/02/2017 12:00
Despejado
Despejado
 Viento del NNO
Viento: NNO 9 km/h
Temperatura: 7°C
Wind Chill: 6°C
Rocío: 1°C
Humedad: 66%
Barómetro: 1022 hPa
Resumen: Despejado
Visibilidad: greater than 10 km
2017/02/25 11:00 LEVD 251100Z 34005KT 300V020 CAVOK 07/01 Q1022
LEVX - Vigo
Actualización: 25/02/2017 12:00
Despejado
Despejado
 Viento del SSO
Viento: SSO 7 km/h
Temperatura: 13°C
Rocío: 8°C
Humedad: 72%
Barómetro: 1021 hPa
Resumen: Despejado
Visibilidad: greater than 10 km
2017/02/25 11:00 LEVX 251100Z 21004KT 190V250 CAVOK 13/08 Q1021 NOSIG
 
LEVT - Vitoria
Actualización: 25/02/2017 12:00
Despejado
Despejado
 Viento del calm
Viento: Calma
Temperatura: 7°C
Rocío: 4°C
Humedad: 81%
Barómetro: 1021 hPa
Resumen: Despejado
Visibilidad: greater than 10 km
2017/02/25 11:00 LEVT 251100Z 00000KT CAVOK 07/04 Q1021
LEZG - Zaragoza
Actualización: 25/02/2017 12:00
Despejado
Despejado
 Viento del ONO
Viento: ONO 19 km/h
Temperatura: 12°C
Rocío: 1°C
Humedad: 47%
Barómetro: 1020 hPa
Resumen: Despejado
Visibilidad: greater than 10 km
2017/02/25 11:00 LEZG 251100Z 30010KT 260V320 CAVOK 12/01 Q1020

La estación de MeteoMurcia.com, publica sus datos en los siguientes proyectos:

Meteoclimatic www.awekas.at

W3Counter
Web Analytics